createdAt,value
2024-02-07T00:00:00.431Z,5.83
2024-02-07T00:02:30.197Z,5.81
2024-02-07T00:04:58.504Z,5.79
2024-02-07T00:07:26.692Z,5.74
2024-02-07T00:09:54.817Z,5.70
2024-02-07T00:12:23.233Z,5.68
2024-02-07T00:14:51.607Z,5.66
2024-02-07T00:17:19.667Z,5.63
2024-02-07T00:19:48.963Z,5.60
2024-02-07T00:22:17.369Z,5.56
2024-02-07T00:24:45.594Z,5.52
2024-02-07T00:27:13.913Z,5.51
2024-02-07T00:29:42.020Z,5.50
2024-02-07T00:32:10.292Z,5.48
2024-02-07T00:34:38.691Z,5.45
2024-02-07T00:37:06.908Z,5.43
2024-02-07T00:39:38.158Z,5.40
2024-02-07T00:42:06.565Z,5.35
2024-02-07T00:44:34.628Z,5.31
2024-02-07T00:47:02.792Z,5.30
2024-02-07T00:49:31.067Z,5.28
2024-02-07T00:52:00.418Z,5.26
2024-02-07T00:54:29.249Z,5.24
2024-02-07T00:56:57.332Z,5.22
2024-02-07T00:59:25.388Z,5.21
2024-02-07T01:02:37.304Z,5.21
2024-02-07T01:05:06.242Z,5.20
2024-02-07T01:07:34.512Z,5.20
2024-02-07T01:10:02.712Z,5.21
2024-02-07T01:12:30.993Z,5.24
2024-02-07T01:14:59.560Z,5.27
2024-02-07T01:17:27.928Z,5.29
2024-02-07T01:19:56.356Z,5.29
2024-02-07T01:22:24.705Z,5.30
2024-02-07T01:24:53.585Z,5.34
2024-02-07T01:27:21.844Z,5.41
2024-02-07T01:29:50.354Z,5.44
2024-02-07T01:32:18.630Z,5.46
2024-02-07T01:34:47.027Z,5.50
2024-02-07T01:37:16.042Z,5.55
2024-02-07T01:39:44.570Z,5.61
2024-02-07T01:42:12.854Z,5.66
2024-02-07T01:44:41.275Z,5.70
2024-02-07T01:47:14.262Z,5.76
2024-02-07T01:49:49.953Z,5.82
2024-02-07T01:52:22.467Z,5.89
2024-02-07T01:54:51.596Z,5.93
2024-02-07T01:57:21.058Z,5.94
2024-02-07T01:59:50.961Z,5.90
2024-02-07T02:02:20.655Z,5.90
2024-02-07T02:04:49.296Z,5.91
2024-02-07T02:07:19.339Z,5.94
2024-02-07T02:09:47.562Z,5.93
2024-02-07T02:12:15.926Z,5.87
2024-02-07T02:14:44.817Z,5.80
2024-02-07T02:17:13.018Z,5.74
2024-02-07T02:19:41.288Z,5.69
2024-02-07T02:22:32.094Z,5.63
2024-02-07T02:25:13.123Z,5.60
2024-02-07T02:28:40.888Z,5.54
2024-02-07T02:31:14.970Z,5.44
2024-02-07T02:33:45.496Z,5.37
2024-02-07T02:36:14.036Z,5.31
2024-02-07T02:38:42.703Z,5.26
2024-02-07T02:41:11.141Z,5.20
2024-02-07T02:43:40.810Z,5.14
2024-02-07T02:46:10.861Z,5.09
2024-02-07T02:48:40.760Z,5.05
2024-02-07T02:51:09.339Z,5.02
2024-02-07T02:53:38.743Z,4.97
2024-02-07T02:56:07.517Z,4.93
2024-02-07T02:58:42.841Z,4.88
2024-02-07T03:01:13.630Z,4.84
2024-02-07T03:03:45.800Z,4.80
2024-02-07T03:06:29.975Z,4.76
2024-02-07T03:09:20.715Z,4.73
2024-02-07T03:11:49.833Z,4.70
2024-02-07T03:14:18.159Z,4.67
2024-02-07T03:16:47.315Z,4.62
2024-02-07T03:19:15.585Z,4.59
2024-02-07T03:21:45.195Z,4.57
2024-02-07T03:24:13.430Z,4.53
2024-02-07T03:26:41.567Z,4.49
2024-02-07T03:29:09.872Z,4.45
2024-02-07T03:31:38.730Z,4.41
2024-02-07T03:34:08.058Z,4.37
2024-02-07T03:36:36.435Z,4.33
2024-02-07T03:39:08.382Z,4.28
2024-02-07T03:41:36.672Z,4.23
2024-02-07T03:44:10.452Z,4.19
2024-02-07T03:46:39.011Z,4.16
2024-02-07T03:49:08.856Z,4.12
2024-02-07T03:51:39.012Z,4.10
2024-02-07T03:54:08.983Z,4.09
2024-02-07T03:56:37.046Z,4.09
2024-02-07T03:59:05.255Z,4.08
2024-02-07T04:01:33.439Z,4.07
2024-02-07T04:04:01.853Z,4.07
2024-02-07T04:06:30.427Z,4.07
2024-02-07T04:08:59.084Z,4.09
2024-02-07T04:11:27.354Z,4.13
2024-02-07T04:13:55.470Z,4.19
2024-02-07T04:16:42.151Z,4.25
2024-02-07T04:19:31.530Z,4.31
2024-02-07T04:22:18.331Z,4.36
2024-02-07T04:25:04.936Z,4.46
2024-02-07T04:27:51.462Z,4.54
2024-02-07T04:30:38.184Z,4.62
2024-02-07T04:33:25.259Z,4.69
2024-02-07T04:36:11.740Z,4.76
2024-02-07T04:38:58.348Z,4.83
2024-02-07T04:41:44.793Z,4.91
2024-02-07T04:44:31.310Z,4.96
2024-02-07T04:47:17.907Z,4.98
2024-02-07T04:50:04.718Z,5.00
2024-02-07T04:52:51.312Z,5.01
2024-02-07T04:55:38.110Z,5.03
2024-02-07T04:58:24.803Z,5.04
2024-02-07T05:01:11.467Z,5.01
2024-02-07T05:03:57.954Z,4.96
2024-02-07T05:06:44.778Z,4.94
2024-02-07T05:09:31.201Z,4.90
2024-02-07T05:12:17.917Z,4.86
2024-02-07T05:14:48.780Z,4.79
2024-02-07T05:17:23.012Z,4.72
2024-02-07T05:19:52.164Z,4.65
2024-02-07T05:22:20.999Z,4.55
2024-02-07T05:24:49.283Z,4.45
2024-02-07T05:27:18.948Z,4.33
2024-02-07T05:29:47.213Z,4.24
2024-02-07T05:32:15.435Z,4.16
2024-02-07T05:34:43.745Z,4.10
2024-02-07T05:37:11.949Z,4.05
2024-02-07T05:39:40.708Z,4.01
2024-02-07T05:42:08.866Z,3.96
2024-02-07T05:44:37.063Z,3.91
2024-02-07T05:47:05.386Z,3.87
2024-02-07T05:49:33.801Z,3.84
2024-02-07T05:52:03.510Z,3.82
2024-02-07T05:54:32.140Z,3.79
2024-02-07T05:57:00.440Z,3.77
2024-02-07T05:59:31.629Z,3.77
2024-02-07T06:01:59.984Z,3.78
2024-02-07T06:04:28.302Z,3.78
2024-02-07T06:06:56.843Z,3.76
2024-02-07T06:09:25.216Z,3.76
2024-02-07T06:11:53.426Z,3.77
2024-02-07T06:14:21.575Z,3.81
2024-02-07T06:16:50.916Z,3.84
2024-02-07T06:19:19.968Z,3.91
2024-02-07T06:21:50.870Z,4.02
2024-02-07T06:24:22.095Z,4.18
2024-02-07T06:26:50.220Z,4.29
2024-02-07T06:29:18.570Z,4.38
2024-02-07T06:31:46.850Z,4.44
2024-02-07T06:34:22.629Z,4.49
2024-02-07T06:37:16.998Z,4.62
2024-02-07T06:39:45.109Z,4.70
2024-02-07T06:42:13.392Z,4.77
2024-02-07T06:44:41.436Z,4.84
2024-02-07T06:47:09.576Z,4.92
2024-02-07T06:49:38.052Z,5.03
2024-02-07T06:52:06.540Z,5.11
2024-02-07T06:54:34.579Z,5.13
2024-02-07T06:57:02.855Z,5.13
2024-02-07T06:59:30.864Z,5.13
2024-02-07T07:01:59.252Z,5.13
2024-02-07T07:04:27.496Z,5.14
2024-02-07T07:06:55.578Z,5.14
2024-02-07T07:09:23.686Z,5.14
2024-02-07T07:11:51.851Z,5.13
2024-02-07T07:14:19.947Z,5.11
2024-02-07T07:16:48.077Z,5.10
2024-02-07T07:19:17.297Z,5.12
2024-02-07T07:21:45.571Z,5.17
2024-02-07T07:24:13.542Z,5.23
2024-02-07T07:26:41.678Z,5.29
2024-02-07T07:29:11.909Z,5.35
2024-02-07T07:31:40.269Z,5.43
2024-02-07T07:34:08.662Z,5.52
2024-02-07T07:36:36.984Z,5.63
2024-02-07T07:39:07.172Z,5.78
2024-02-07T07:41:38.376Z,5.88
2024-02-07T07:44:09.408Z,5.95
2024-02-07T07:46:37.691Z,6.02
2024-02-07T07:49:05.954Z,6.10
2024-02-07T07:51:34.352Z,6.14
2024-02-07T07:54:02.590Z,6.20
2024-02-07T07:56:32.601Z,6.26
2024-02-07T07:59:01.054Z,6.35
2024-02-07T08:01:29.642Z,6.47
2024-02-07T08:03:57.860Z,6.60
2024-02-07T08:06:26.080Z,6.80
2024-02-07T08:08:54.315Z,6.97
2024-02-07T08:11:22.442Z,7.15
2024-02-07T08:13:50.778Z,7.31
2024-02-07T08:16:19.191Z,7.42
2024-02-07T08:18:48.468Z,7.52
2024-02-07T08:21:17.727Z,7.60
2024-02-07T08:23:45.919Z,7.68
2024-02-07T08:26:14.043Z,7.78
2024-02-07T08:28:42.205Z,7.90
2024-02-07T08:31:12.863Z,8.00
2024-02-07T08:33:41.197Z,8.06
2024-02-07T08:36:09.950Z,8.12
2024-02-07T08:38:38.901Z,8.17
2024-02-07T08:41:07.227Z,8.21
2024-02-07T08:43:35.376Z,8.24
2024-02-07T08:46:03.536Z,8.29
2024-02-07T08:48:31.957Z,8.35
2024-02-07T08:51:00.269Z,8.45
2024-02-07T08:53:28.962Z,8.57
2024-02-07T08:56:02.727Z,8.69
2024-02-07T08:58:33.911Z,8.79
2024-02-07T09:01:03.937Z,8.85
2024-02-07T09:03:32.328Z,8.89
2024-02-07T09:06:00.656Z,8.93
2024-02-07T09:08:33.414Z,8.97
2024-02-07T09:11:04.943Z,9.03
2024-02-07T09:13:33.049Z,9.12
2024-02-07T09:16:00.987Z,9.22
2024-02-07T09:18:29.145Z,9.36
2024-02-07T09:21:00.028Z,9.53
2024-02-07T09:23:28.190Z,9.70
2024-02-07T09:25:56.256Z,9.87
2024-02-07T09:28:35.791Z,10.01
2024-02-07T09:31:06.614Z,10.16
2024-02-07T09:33:34.796Z,10.27
2024-02-07T09:36:03.139Z,10.36
2024-02-07T09:38:31.389Z,10.49
2024-02-07T09:41:02.598Z,10.63
2024-02-07T09:43:30.800Z,10.72
2024-02-07T09:45:59.837Z,10.70
2024-02-07T09:48:29.050Z,10.65
2024-02-07T09:51:01.709Z,10.63
2024-02-07T09:53:36.220Z,10.57
2024-02-07T09:59:45.015Z,10.38
2024-02-07T10:02:17.677Z,10.32
2024-02-07T10:04:53.990Z,10.29
2024-02-07T10:07:22.519Z,10.27
2024-02-07T10:09:56.826Z,10.23
2024-02-07T10:12:25.588Z,10.17
2024-02-07T10:14:53.663Z,10.14
2024-02-07T10:17:21.829Z,10.15
2024-02-07T10:19:53.957Z,10.15
2024-02-07T10:22:22.436Z,10.16
2024-02-07T10:24:50.791Z,10.18
2024-02-07T10:27:20.790Z,10.15
2024-02-07T10:29:50.066Z,10.06
2024-02-07T10:32:19.606Z,9.99
2024-02-07T10:34:57.130Z,9.99
2024-02-07T10:37:26.594Z,10.02
2024-02-07T10:40:02.164Z,10.11
2024-02-07T10:42:30.475Z,10.25
2024-02-07T10:45:11.733Z,10.37
2024-02-07T10:47:40.204Z,10.43
2024-02-07T10:50:11.861Z,10.46
2024-02-07T10:52:42.691Z,10.49
2024-02-07T10:55:14.457Z,10.50
2024-02-07T10:57:46.842Z,10.51
2024-02-07T11:00:17.108Z,10.52
2024-02-07T11:02:48.974Z,10.54
2024-02-07T11:05:19.147Z,10.59
2024-02-07T11:07:48.400Z,10.62
2024-02-07T11:10:18.185Z,10.65
2024-02-07T11:12:49.029Z,10.68
2024-02-07T11:15:17.359Z,10.69
2024-02-07T11:17:45.708Z,10.71
2024-02-07T11:20:14.063Z,10.74
2024-02-07T11:22:52.549Z,10.76
2024-02-07T11:25:23.810Z,10.78
2024-02-07T11:27:53.220Z,10.77
2024-02-07T11:30:21.503Z,10.80
2024-02-07T11:32:52.926Z,10.84
2024-02-07T11:35:24.414Z,10.87
2024-02-07T11:37:53.504Z,10.88
2024-02-07T11:40:25.508Z,10.90
2024-02-07T11:43:03.319Z,10.91
2024-02-07T11:45:32.052Z,10.96
2024-02-07T11:48:00.422Z,11.08
2024-02-07T11:50:36.732Z,11.27
2024-02-07T11:53:05.521Z,11.46
2024-02-07T11:55:42.121Z,11.64
2024-02-07T11:58:10.446Z,11.83
2024-02-07T12:00:39.099Z,11.96
2024-02-07T12:03:14.155Z,12.05
2024-02-07T12:05:44.838Z,12.17
2024-02-07T12:08:15.086Z,12.29
2024-02-07T12:10:43.542Z,12.37
2024-02-07T12:13:12.324Z,12.43
2024-02-07T12:15:41.529Z,12.44
2024-02-07T12:18:10.374Z,12.46
2024-02-07T12:24:06.293Z,12.47
2024-02-07T12:26:34.504Z,12.54
2024-02-07T12:29:07.668Z,12.63
2024-02-07T12:31:36.094Z,12.67
2024-02-07T12:34:04.537Z,12.71
2024-02-07T12:36:34.456Z,12.73
2024-02-07T12:39:02.442Z,12.78
2024-02-07T12:41:30.688Z,12.79
2024-02-07T12:43:58.780Z,12.71
2024-02-07T12:46:26.966Z,12.69
2024-02-07T12:48:56.701Z,12.69
2024-02-07T12:51:27.474Z,12.70
2024-02-07T12:53:55.690Z,12.73
2024-02-07T12:56:24.664Z,12.81
2024-02-07T12:58:53.063Z,12.83
2024-02-07T13:01:27.829Z,12.79
2024-02-07T13:03:57.344Z,12.73
2024-02-07T13:06:26.201Z,12.65
2024-02-07T13:08:54.379Z,12.61
2024-02-07T13:11:22.571Z,12.59
2024-02-07T13:13:50.772Z,12.57
2024-02-07T13:16:21.531Z,12.54
2024-02-07T13:18:50.011Z,12.53
2024-02-07T13:21:18.349Z,12.53
2024-02-07T13:23:46.866Z,12.53
2024-02-07T13:26:15.075Z,12.56
2024-02-07T13:28:44.259Z,12.60
2024-02-07T13:31:12.443Z,12.59
2024-02-07T13:33:40.983Z,12.60
2024-02-07T13:36:09.273Z,12.60
2024-02-07T13:38:38.213Z,12.57
2024-02-07T13:41:07.274Z,12.59
2024-02-07T13:43:35.617Z,12.71
2024-02-07T13:46:03.990Z,12.83
2024-02-07T13:48:32.384Z,12.75
2024-02-07T13:51:03.561Z,12.65
2024-02-07T13:53:31.866Z,12.55
2024-02-07T13:56:00.183Z,12.49
2024-02-07T13:58:30.788Z,12.53
2024-02-07T14:01:00.110Z,12.57
2024-02-07T14:03:28.370Z,12.55
2024-02-07T14:05:56.726Z,12.51
2024-02-07T14:08:24.996Z,12.44
2024-02-07T14:10:53.469Z,12.35
2024-02-07T14:13:21.534Z,12.23
2024-02-07T14:15:49.697Z,12.11
2024-02-07T14:21:53.293Z,11.94
2024-02-07T14:24:21.438Z,11.86
2024-02-07T14:26:49.493Z,11.79
2024-02-07T14:29:17.572Z,11.76
2024-02-07T14:31:45.827Z,11.71
2024-02-07T14:34:16.296Z,11.66
2024-02-07T14:36:44.788Z,11.61
2024-02-07T14:39:13.003Z,11.56
2024-02-07T14:41:41.308Z,11.50
2024-02-07T14:44:09.527Z,11.43
2024-02-07T14:46:37.753Z,11.37
2024-02-07T14:49:07.038Z,11.32
2024-02-07T14:51:35.567Z,11.26
2024-02-07T14:54:04.301Z,11.22
2024-02-07T14:56:34.439Z,11.15
2024-02-07T14:59:02.879Z,11.07
2024-02-07T15:01:32.355Z,10.99
2024-02-07T15:04:00.447Z,10.89
2024-02-07T15:06:28.735Z,10.82
2024-02-07T15:08:56.751Z,10.73
2024-02-07T15:11:24.801Z,10.66
2024-02-07T15:13:52.990Z,10.58
2024-02-07T15:16:21.193Z,10.51
2024-02-07T15:18:49.325Z,10.43
2024-02-07T15:21:17.472Z,10.35
2024-02-07T15:23:45.441Z,10.26
2024-02-07T15:26:13.499Z,10.18
2024-02-07T15:28:41.564Z,10.11
2024-02-07T15:31:09.559Z,10.04
2024-02-07T15:33:40.163Z,9.97
2024-02-07T15:36:10.262Z,9.89
2024-02-07T15:38:38.244Z,9.83
2024-02-07T15:41:06.392Z,9.76
2024-02-07T15:43:34.501Z,9.71
2024-02-07T15:46:02.696Z,9.68
2024-02-07T15:48:30.750Z,9.65
2024-02-07T15:51:01.891Z,9.62
2024-02-07T15:53:30.265Z,9.60
2024-02-07T15:55:58.728Z,9.58
2024-02-07T15:58:26.870Z,9.55
2024-02-07T16:00:58.915Z,9.53
2024-02-07T16:03:26.968Z,9.52
2024-02-07T16:05:55.423Z,9.51
2024-02-07T16:08:23.440Z,9.49
2024-02-07T16:10:51.677Z,9.46
2024-02-07T16:13:19.913Z,9.43
2024-02-07T16:15:47.963Z,9.39
2024-02-07T16:18:16.109Z,9.36
2024-02-07T16:20:44.843Z,9.34
2024-02-07T16:23:12.854Z,9.33
2024-02-07T16:25:40.943Z,9.31
2024-02-07T16:28:09.034Z,9.30
2024-02-07T16:30:37.459Z,9.30
2024-02-07T16:33:06.829Z,9.28
2024-02-07T16:35:35.081Z,9.27
2024-02-07T16:38:03.461Z,9.26
2024-02-07T16:40:33.715Z,9.24
2024-02-07T16:43:05.186Z,9.24
2024-02-07T16:45:37.408Z,9.21
2024-02-07T16:48:06.448Z,9.19
2024-02-07T16:50:34.623Z,9.16
2024-02-07T16:53:04.819Z,9.14
2024-02-07T16:55:33.695Z,9.13
2024-02-07T16:58:01.848Z,9.10
2024-02-07T17:00:30.079Z,9.06
2024-02-07T17:02:58.309Z,9.04
2024-02-07T17:05:26.543Z,9.02
2024-02-07T17:07:57.155Z,9.00
2024-02-07T17:10:25.520Z,8.97
2024-02-07T17:12:53.955Z,8.95
2024-02-07T17:15:22.040Z,8.92
2024-02-07T17:17:50.320Z,8.90
2024-02-07T17:20:19.107Z,8.88
2024-02-07T17:22:47.794Z,8.86
2024-02-07T17:25:16.705Z,8.84
2024-02-07T17:27:44.768Z,8.82
2024-02-07T17:30:37.228Z,8.80
2024-02-07T17:33:06.553Z,8.75
2024-02-07T17:35:35.150Z,8.71
2024-02-07T17:38:03.661Z,8.65
2024-02-07T17:40:32.019Z,8.60
2024-02-07T17:43:00.304Z,8.57
2024-02-07T17:45:28.752Z,8.54
2024-02-07T17:47:57.079Z,8.51
2024-02-07T17:50:27.266Z,8.48
2024-02-07T17:52:55.628Z,8.47
2024-02-07T17:55:23.898Z,8.47
2024-02-07T17:57:54.613Z,8.48
2024-02-07T18:00:23.571Z,8.48
2024-02-07T18:02:52.600Z,8.47
2024-02-07T18:05:26.571Z,8.45
2024-02-07T18:08:01.376Z,8.43
2024-02-07T18:10:33.195Z,8.44
2024-02-07T18:13:04.950Z,8.46
2024-02-07T18:15:33.699Z,8.50
2024-02-07T18:18:05.192Z,8.54
2024-02-07T18:20:35.530Z,8.58
2024-02-07T18:23:04.060Z,8.60
2024-02-07T18:25:34.367Z,8.62
2024-02-07T18:28:02.454Z,8.60
2024-02-07T18:30:30.695Z,8.59
2024-02-07T18:32:59.006Z,8.58
2024-02-07T18:35:28.302Z,8.56
2024-02-07T18:37:56.586Z,8.53
2024-02-07T18:40:26.363Z,8.50
2024-02-07T18:42:54.672Z,8.47
2024-02-07T18:45:26.471Z,8.43
2024-02-07T18:48:01.564Z,8.39
2024-02-07T18:50:30.168Z,8.35
2024-02-07T18:52:59.261Z,8.31
2024-02-07T18:55:27.803Z,8.29
2024-02-07T18:57:58.431Z,8.29
2024-02-07T19:00:26.548Z,8.31
2024-02-07T19:02:54.663Z,8.32
2024-02-07T19:05:23.000Z,8.31
2024-02-07T19:07:51.224Z,8.30
2024-02-07T19:10:19.358Z,8.30
2024-02-07T19:12:47.429Z,8.30
2024-02-07T19:15:15.670Z,8.31
2024-02-07T19:17:43.916Z,8.34
2024-02-07T19:20:12.362Z,8.38
2024-02-07T19:22:40.783Z,8.43
2024-02-07T19:25:09.517Z,8.48
2024-02-07T19:27:41.725Z,8.52
2024-02-07T19:30:10.940Z,8.58
2024-02-07T19:32:40.975Z,8.63
2024-02-07T19:35:09.813Z,8.67
2024-02-07T19:37:38.603Z,8.70
2024-02-07T19:40:10.368Z,8.71
2024-02-07T19:42:38.731Z,8.73
2024-02-07T19:45:10.784Z,8.76
2024-02-07T19:47:39.112Z,8.78
2024-02-07T19:50:09.359Z,8.82
2024-02-07T19:52:39.019Z,8.87
2024-02-07T19:55:07.535Z,8.91
2024-02-07T19:57:35.850Z,8.91
2024-02-07T20:00:04.470Z,8.96
2024-02-07T20:02:52.211Z,8.99
2024-02-07T20:05:21.317Z,9.00
2024-02-07T20:07:49.745Z,8.99
2024-02-07T20:10:18.137Z,9.01
2024-02-07T20:12:47.291Z,9.03
2024-02-07T20:15:16.808Z,9.06
2024-02-07T20:17:45.759Z,9.08
2024-02-07T20:20:14.459Z,9.08
2024-02-07T20:22:42.751Z,9.07
2024-02-07T20:25:13.481Z,9.06
2024-02-07T20:27:42.033Z,9.05
2024-02-07T20:30:10.498Z,9.05
2024-02-07T20:32:38.864Z,9.05
2024-02-07T20:35:07.672Z,9.06
2024-02-07T20:37:36.025Z,9.07
2024-02-07T20:40:04.458Z,9.10
2024-02-07T20:42:32.799Z,9.11
2024-02-07T20:45:01.046Z,9.09
2024-02-07T20:47:36.746Z,9.08
2024-02-07T20:50:06.272Z,9.10
2024-02-07T20:52:34.999Z,9.13
2024-02-07T20:55:03.761Z,9.15
2024-02-07T20:57:32.076Z,9.17
2024-02-07T21:00:02.439Z,9.20
2024-02-07T21:02:33.406Z,9.22
2024-02-07T21:05:01.828Z,9.23
2024-02-07T21:07:32.951Z,9.23
2024-02-07T21:10:01.517Z,9.21
2024-02-07T21:12:29.855Z,9.22
2024-02-07T21:14:58.163Z,9.23
2024-02-07T21:17:29.450Z,9.25
2024-02-07T21:19:58.432Z,9.26
2024-02-07T21:22:26.719Z,9.28
2024-02-07T21:24:55.045Z,9.29
2024-02-07T21:27:23.229Z,9.30
2024-02-07T21:29:54.493Z,9.32
2024-02-07T21:32:23.066Z,9.32
2024-02-07T21:34:52.605Z,9.32
2024-02-07T21:37:20.899Z,9.32
2024-02-07T21:39:49.362Z,9.30
2024-02-07T21:42:17.495Z,9.29
2024-02-07T21:44:45.563Z,9.28
2024-02-07T21:47:16.895Z,9.26
2024-02-07T21:49:45.398Z,9.25
2024-02-07T21:52:13.777Z,9.23
2024-02-07T21:54:42.588Z,9.21
2024-02-07T21:57:11.235Z,9.19
2024-02-07T21:59:40.018Z,9.18
2024-02-07T22:02:11.159Z,9.17
2024-02-07T22:04:53.655Z,9.16
2024-02-07T22:07:26.302Z,9.16
2024-02-07T22:09:54.815Z,9.17
2024-02-07T22:12:25.393Z,9.16
2024-02-07T22:14:54.994Z,9.16
2024-02-07T22:17:23.412Z,9.17
2024-02-07T22:19:53.479Z,9.16
2024-02-07T22:22:22.331Z,9.18
2024-02-07T22:24:50.695Z,9.19
2024-02-07T22:27:18.948Z,9.19
2024-02-07T22:29:47.286Z,9.20
2024-02-07T22:32:15.790Z,9.22
2024-02-07T22:34:44.185Z,9.24
2024-02-07T22:37:15.818Z,9.24
2024-02-07T22:39:44.000Z,9.25
2024-02-07T22:42:14.133Z,9.23
2024-02-07T22:44:43.353Z,9.20
2024-02-07T22:47:14.279Z,9.22
2024-02-07T22:49:43.077Z,9.23
2024-02-07T22:52:11.499Z,9.26
2024-02-07T22:54:39.728Z,9.28
2024-02-07T22:57:08.545Z,9.29
2024-02-07T22:59:36.713Z,9.29
2024-02-07T23:02:05.306Z,9.25
2024-02-07T23:04:33.518Z,9.23
2024-02-07T23:07:03.065Z,9.24
2024-02-07T23:09:31.296Z,9.25
2024-02-07T23:11:59.408Z,9.26
2024-02-07T23:14:27.798Z,9.24
2024-02-07T23:16:56.112Z,9.20
2024-02-07T23:19:26.595Z,9.16
2024-02-07T23:21:55.170Z,9.09
2024-02-07T23:24:23.302Z,9.04
2024-02-07T23:26:51.518Z,8.98
2024-02-07T23:29:19.671Z,8.91
2024-02-07T23:31:48.437Z,8.85
2024-02-07T23:34:16.562Z,8.82
2024-02-07T23:36:45.574Z,8.82
2024-02-07T23:39:13.926Z,8.82
2024-02-07T23:41:42.118Z,8.85
2024-02-07T23:44:10.411Z,8.86
2024-02-07T23:46:38.702Z,8.85
2024-02-07T23:49:07.217Z,8.79
2024-02-07T23:51:36.291Z,8.73
2024-02-07T23:54:04.614Z,8.65
2024-02-07T23:56:32.776Z,8.60
2024-02-07T23:59:01.733Z,8.55
